createdAt,value
2022-12-26T00:02:04.948Z,1.30
2022-12-26T00:04:50.780Z,1.30
2022-12-26T00:07:23.053Z,1.30
2022-12-26T00:09:51.399Z,1.30
2022-12-26T00:12:19.775Z,1.30
2022-12-26T00:14:48.141Z,1.30
2022-12-26T00:17:16.446Z,1.20
2022-12-26T00:19:44.797Z,1.20
2022-12-26T00:22:15.986Z,1.20
2022-12-26T00:24:45.837Z,1.20
2022-12-26T00:27:14.207Z,1.30
2022-12-26T00:29:42.568Z,1.30
2022-12-26T00:32:10.930Z,1.30
2022-12-26T00:34:40.055Z,1.20
2022-12-26T00:37:11.849Z,1.20
2022-12-26T00:39:40.163Z,1.30
2022-12-26T00:42:09.981Z,1.30
2022-12-26T00:44:38.395Z,1.30
2022-12-26T00:47:06.776Z,1.20
2022-12-26T00:50:13.893Z,1.20
2022-12-26T00:52:23.521Z,1.20
2022-12-26T00:54:51.832Z,1.20
2022-12-26T00:57:21.773Z,1.10
2022-12-26T00:59:50.139Z,1.10
2022-12-26T01:02:36.332Z,1.10
2022-12-26T01:05:05.062Z,1.20
2022-12-26T01:07:35.357Z,1.20
2022-12-26T01:10:24.011Z,1.20
2022-12-26T01:12:53.886Z,1.20
2022-12-26T01:15:22.429Z,1.20
2022-12-26T01:17:50.812Z,1.10
2022-12-26T01:20:19.325Z,1.10
2022-12-26T01:22:47.815Z,1.00
2022-12-26T01:25:16.172Z,1.10
2022-12-26T01:27:44.484Z,1.20
2022-12-26T01:30:14.590Z,1.20
2022-12-26T01:32:46.904Z,1.20
2022-12-26T01:35:15.388Z,1.20
2022-12-26T01:37:43.737Z,1.20
2022-12-26T01:40:14.395Z,1.30
2022-12-26T01:42:43.414Z,1.30
2022-12-26T01:45:25.389Z,1.30
2022-12-26T01:47:59.734Z,1.30
2022-12-26T01:50:41.856Z,1.20
2022-12-26T01:53:15.264Z,1.20
2022-12-26T01:55:47.072Z,1.20
2022-12-26T01:58:21.442Z,1.10
2022-12-26T02:00:52.135Z,1.10
2022-12-26T02:06:56.242Z,1.00
2022-12-26T02:09:25.211Z,1.10
2022-12-26T02:12:35.988Z,1.10
2022-12-26T02:14:50.547Z,1.00
2022-12-26T02:17:20.610Z,0.90
2022-12-26T02:19:56.426Z,1.00
2022-12-26T02:22:51.728Z,1.00
2022-12-26T02:25:42.594Z,1.00
2022-12-26T02:28:47.659Z,0.80
2022-12-26T02:31:22.058Z,0.90
2022-12-26T02:34:03.825Z,0.90
2022-12-26T02:37:07.681Z,0.90
2022-12-26T02:39:58.217Z,0.80
2022-12-26T02:42:37.452Z,0.80
2022-12-26T02:45:33.601Z,0.90
2022-12-26T02:48:10.350Z,0.80
2022-12-26T02:51:13.057Z,0.80
2022-12-26T02:54:06.004Z,0.80
2022-12-26T02:56:55.407Z,0.80
2022-12-26T03:03:01.993Z,0.80
2022-12-26T03:05:54.277Z,0.80
2022-12-26T03:08:52.629Z,0.80
2022-12-26T03:11:38.430Z,0.80
2022-12-26T03:14:14.455Z,0.80
2022-12-26T03:17:01.883Z,0.70
2022-12-26T03:19:33.697Z,0.70
2022-12-26T03:22:29.875Z,0.70
2022-12-26T03:25:30.368Z,0.70
2022-12-26T03:27:58.737Z,0.60
2022-12-26T03:30:44.744Z,0.80
2022-12-26T03:33:35.310Z,0.70
2022-12-26T03:36:05.866Z,0.70
2022-12-26T03:38:51.501Z,0.60
2022-12-26T03:41:45.605Z,0.70
2022-12-26T03:44:53.290Z,0.50
2022-12-26T03:47:46.507Z,0.50
2022-12-26T03:50:44.090Z,0.50
2022-12-26T03:53:36.080Z,0.40
2022-12-26T03:56:29.508Z,0.50
2022-12-26T03:59:26.752Z,0.60
2022-12-26T04:02:14.763Z,0.50
2022-12-26T04:05:03.494Z,0.40
2022-12-26T04:07:56.117Z,0.40
2022-12-26T04:14:09.422Z,0.40
2022-12-26T04:16:59.638Z,0.40
2022-12-26T04:19:45.648Z,0.40
2022-12-26T04:22:35.986Z,0.40
2022-12-26T04:25:50.497Z,0.40
2022-12-26T04:28:38.443Z,0.40
2022-12-26T04:34:39.263Z,0.30
2022-12-26T04:37:32.749Z,0.30
2022-12-26T04:40:20.632Z,0.20
2022-12-26T04:43:50.392Z,0.20
2022-12-26T04:46:03.002Z,0.20
2022-12-26T04:49:16.163Z,0.10
2022-12-26T04:52:07.410Z,0.10
2022-12-26T04:54:35.852Z,0.20
2022-12-26T04:57:04.712Z,0.20
2022-12-26T04:59:33.252Z,0.20
2022-12-26T05:02:19.042Z,0.20
2022-12-26T05:05:06.618Z,0.20
2022-12-26T05:07:55.576Z,0.30
2022-12-26T05:10:26.776Z,0.30
2022-12-26T05:12:56.176Z,0.20
2022-12-26T05:15:25.037Z,0.20
2022-12-26T05:18:10.713Z,0.20
2022-12-26T05:21:46.941Z,0.20
2022-12-26T05:24:34.040Z,0.20
2022-12-26T05:27:20.059Z,0.00
2022-12-26T05:29:48.623Z,0.10
2022-12-26T05:32:34.105Z,0.10
2022-12-26T05:35:03.550Z,0.00
2022-12-26T05:37:31.860Z,0.00
2022-12-26T05:40:01.598Z,-0.20
2022-12-26T05:42:29.955Z,-0.10
2022-12-26T05:44:58.307Z,-0.10
2022-12-26T05:47:26.711Z,-0.10
2022-12-26T05:49:54.969Z,-0.10
2022-12-26T05:52:48.888Z,0.00
2022-12-26T05:55:18.780Z,-0.10
2022-12-26T05:57:47.157Z,0.00
2022-12-26T06:00:16.585Z,0.00
2022-12-26T06:02:45.331Z,0.00
2022-12-26T06:05:13.774Z,-0.10
2022-12-26T06:07:42.114Z,0.00
2022-12-26T06:10:11.137Z,0.00
2022-12-26T06:12:40.995Z,0.00
2022-12-26T06:15:10.453Z,0.00
2022-12-26T06:17:38.856Z,0.00
2022-12-26T06:20:08.555Z,0.00
2022-12-26T06:22:36.903Z,0.30
2022-12-26T06:25:05.756Z,1.00
2022-12-26T06:27:34.068Z,2.00
2022-12-26T06:30:03.876Z,3.10
2022-12-26T06:32:33.211Z,4.20
2022-12-26T06:35:01.563Z,5.20
2022-12-26T06:37:31.139Z,6.10
2022-12-26T06:39:59.486Z,6.60
2022-12-26T06:42:29.880Z,7.40
2022-12-26T06:44:58.233Z,8.30
2022-12-26T06:47:27.939Z,8.90
2022-12-26T06:49:56.273Z,9.30
2022-12-26T06:52:24.614Z,9.90
2022-12-26T06:54:52.974Z,10.30
2022-12-26T06:57:21.306Z,10.70
2022-12-26T06:59:49.688Z,10.90
2022-12-26T07:02:18.129Z,11.00
2022-12-26T07:04:47.913Z,11.10
2022-12-26T07:07:16.237Z,10.90
2022-12-26T07:09:44.561Z,10.60
2022-12-26T07:12:12.882Z,10.10
2022-12-26T07:14:41.290Z,9.30
2022-12-26T07:17:11.152Z,8.70
2022-12-26T07:19:39.600Z,8.10
2022-12-26T07:22:09.391Z,7.50
2022-12-26T07:24:37.839Z,7.10
2022-12-26T07:27:06.166Z,6.90
2022-12-26T07:29:34.622Z,6.70
2022-12-26T07:32:02.994Z,6.30
2022-12-26T07:34:32.265Z,6.00
2022-12-26T07:37:00.733Z,5.70
2022-12-26T07:39:31.485Z,5.70
2022-12-26T07:42:07.019Z,5.50
2022-12-26T07:44:35.365Z,5.40
2022-12-26T07:47:06.039Z,5.30
2022-12-26T07:49:34.385Z,5.30
2022-12-26T07:52:08.906Z,5.30
2022-12-26T07:54:38.621Z,5.30
2022-12-26T07:57:46.310Z,5.40
2022-12-26T07:59:56.587Z,5.40
2022-12-26T08:02:25.185Z,5.40
2022-12-26T08:04:53.676Z,5.50
2022-12-26T08:07:22.044Z,5.50
2022-12-26T08:09:51.728Z,5.60
2022-12-26T08:12:21.664Z,5.80
2022-12-26T08:14:51.206Z,5.90
2022-12-26T08:17:19.621Z,6.00
2022-12-26T08:19:49.074Z,6.10
2022-12-26T08:22:18.374Z,6.40
2022-12-26T08:24:46.726Z,6.60
2022-12-26T08:27:17.492Z,6.80
2022-12-26T08:29:45.861Z,6.90
2022-12-26T08:32:14.169Z,7.10
2022-12-26T08:34:42.540Z,7.20
2022-12-26T08:37:11.263Z,7.40
2022-12-26T08:39:40.639Z,8.10
2022-12-26T08:42:09.973Z,9.90
2022-12-26T08:44:39.704Z,11.80
2022-12-26T08:47:08.055Z,13.60
2022-12-26T08:49:36.504Z,15.10
2022-12-26T08:52:04.930Z,16.50
2022-12-26T08:54:33.574Z,18.00
2022-12-26T08:57:01.947Z,19.00
2022-12-26T08:59:30.314Z,19.80
2022-12-26T09:02:00.143Z,20.30
2022-12-26T09:04:28.690Z,20.00
2022-12-26T09:06:56.991Z,20.10
2022-12-26T09:09:25.315Z,20.10
2022-12-26T09:11:53.757Z,19.70
2022-12-26T09:14:22.223Z,18.40
2022-12-26T09:16:51.876Z,16.60
2022-12-26T09:19:23.060Z,15.20
2022-12-26T09:22:13.043Z,14.00
2022-12-26T09:24:46.719Z,13.00
2022-12-26T09:27:15.047Z,12.30
2022-12-26T09:29:43.405Z,11.90
2022-12-26T09:32:11.688Z,11.50
2022-12-26T09:34:41.620Z,11.30
2022-12-26T09:37:09.905Z,11.10
2022-12-26T09:39:38.267Z,10.90
2022-12-26T09:42:15.979Z,10.80
2022-12-26T09:44:51.687Z,10.90
2022-12-26T09:47:32.276Z,11.00
2022-12-26T09:50:06.771Z,11.10
2022-12-26T09:52:42.248Z,11.10
2022-12-26T09:55:33.604Z,11.10
2022-12-26T09:58:08.371Z,11.30
2022-12-26T10:00:45.076Z,11.30
2022-12-26T10:03:24.251Z,11.30
2022-12-26T10:06:16.880Z,11.40
2022-12-26T10:09:02.345Z,11.50
2022-12-26T10:11:40.229Z,11.40
2022-12-26T10:14:21.712Z,11.30
2022-12-26T10:16:57.573Z,11.20
2022-12-26T10:19:40.709Z,11.10
2022-12-26T10:22:28.555Z,10.80
2022-12-26T10:25:00.301Z,10.50
2022-12-26T10:27:39.167Z,10.30
2022-12-26T10:30:15.299Z,10.20
2022-12-26T10:32:47.357Z,10.10
2022-12-26T10:35:24.890Z,10.00
2022-12-26T10:37:56.174Z,10.00
2022-12-26T10:40:29.572Z,10.10
2022-12-26T10:43:03.216Z,10.30
2022-12-26T10:45:39.044Z,10.50
2022-12-26T10:48:32.944Z,10.80
2022-12-26T10:51:01.392Z,11.10
2022-12-26T10:53:31.260Z,11.40
2022-12-26T10:56:01.968Z,11.60
2022-12-26T10:58:34.873Z,11.80
2022-12-26T11:01:35.859Z,11.90
2022-12-26T11:04:06.467Z,12.10
2022-12-26T11:06:39.058Z,12.30
2022-12-26T11:09:21.094Z,12.40
2022-12-26T11:11:53.018Z,12.20
2022-12-26T11:14:33.802Z,11.90
2022-12-26T11:17:05.957Z,11.90
2022-12-26T11:19:36.257Z,11.80
2022-12-26T11:22:29.559Z,11.60
2022-12-26T11:25:19.201Z,11.50
2022-12-26T11:27:49.837Z,11.60
2022-12-26T11:30:48.636Z,11.80
2022-12-26T11:33:37.573Z,11.70
2022-12-26T11:36:11.709Z,11.50
2022-12-26T11:38:51.200Z,11.50
2022-12-26T11:41:36.767Z,11.50
2022-12-26T11:44:20.008Z,11.50
2022-12-26T11:46:52.355Z,11.60
2022-12-26T11:49:38.875Z,11.60
2022-12-26T11:52:34.734Z,11.50
2022-12-26T11:55:03.418Z,11.40
2022-12-26T11:57:34.384Z,11.30
2022-12-26T12:00:17.827Z,11.20
2022-12-26T12:02:46.572Z,11.20
2022-12-26T12:05:17.481Z,11.30
2022-12-26T12:08:05.140Z,11.40
2022-12-26T12:11:01.272Z,11.30
2022-12-26T12:13:47.094Z,11.20
2022-12-26T12:16:39.902Z,11.10
2022-12-26T12:19:25.244Z,11.20
2022-12-26T12:22:19.452Z,11.30
2022-12-26T12:25:18.011Z,11.30
2022-12-26T12:27:51.985Z,11.30
2022-12-26T12:30:25.103Z,11.40
2022-12-26T12:33:26.511Z,11.30
2022-12-26T12:36:04.646Z,11.30
2022-12-26T12:42:13.351Z,11.30
2022-12-26T12:44:56.831Z,11.30
2022-12-26T12:47:39.048Z,11.30
2022-12-26T12:50:18.502Z,11.30
2022-12-26T12:52:56.603Z,11.30
2022-12-26T12:55:56.378Z,11.30
2022-12-26T12:58:32.485Z,11.30
2022-12-26T13:01:04.960Z,11.20
2022-12-26T13:03:40.804Z,11.20
2022-12-26T13:06:12.784Z,11.20
2022-12-26T13:08:46.900Z,11.20
2022-12-26T13:11:21.752Z,11.20
2022-12-26T13:13:55.723Z,11.20
2022-12-26T13:16:27.784Z,11.20
2022-12-26T13:19:02.157Z,11.20
2022-12-26T13:21:33.101Z,11.20
2022-12-26T13:24:23.751Z,11.10
2022-12-26T13:26:59.173Z,11.10
2022-12-26T13:29:40.202Z,11.20
2022-12-26T13:32:19.329Z,11.20
2022-12-26T13:34:50.024Z,11.30
2022-12-26T13:37:56.163Z,11.30
2022-12-26T13:40:28.334Z,11.20
2022-12-26T13:47:03.156Z,11.10
2022-12-26T13:49:37.254Z,11.00
2022-12-26T13:52:35.787Z,11.00
2022-12-26T13:55:56.425Z,11.00
2022-12-26T13:58:37.623Z,10.90
2022-12-26T14:01:18.647Z,10.80
2022-12-26T14:04:02.547Z,10.80
2022-12-26T14:06:51.398Z,10.80
2022-12-26T14:09:53.643Z,10.80
2022-12-26T14:12:45.824Z,10.70
2022-12-26T14:15:28.215Z,10.60
2022-12-26T14:18:14.804Z,10.60
2022-12-26T14:20:49.940Z,10.50
2022-12-26T14:23:33.109Z,10.50
2022-12-26T14:26:09.461Z,10.40
2022-12-26T14:28:55.418Z,10.20
2022-12-26T14:32:06.805Z,10.10
2022-12-26T14:34:49.463Z,10.00
2022-12-26T14:37:23.649Z,9.90
2022-12-26T14:40:07.921Z,9.70
2022-12-26T14:43:12.791Z,9.60
2022-12-26T14:45:47.242Z,9.40
2022-12-26T14:48:51.077Z,9.30
2022-12-26T14:51:39.219Z,9.10
2022-12-26T14:54:33.992Z,8.90
2022-12-26T14:57:02.602Z,8.80
2022-12-26T14:59:34.538Z,8.70
2022-12-26T15:02:11.320Z,8.50
2022-12-26T15:05:04.125Z,8.30
2022-12-26T15:08:18.427Z,8.10
2022-12-26T15:11:23.279Z,7.90
2022-12-26T15:14:27.484Z,7.70
2022-12-26T15:17:07.957Z,7.60
2022-12-26T15:20:16.457Z,7.40
2022-12-26T15:23:05.045Z,7.20
2022-12-26T15:26:04.707Z,7.10
2022-12-26T15:29:11.335Z,6.90
2022-12-26T15:31:50.977Z,6.70
2022-12-26T15:34:44.416Z,6.70
2022-12-26T15:37:38.799Z,6.70
2022-12-26T15:40:15.954Z,6.50
2022-12-26T15:42:58.608Z,6.40
2022-12-26T15:45:39.081Z,6.20
2022-12-26T15:48:36.773Z,6.00
2022-12-26T15:51:12.406Z,5.90
2022-12-26T15:53:57.507Z,5.90
2022-12-26T15:56:51.101Z,5.80
2022-12-26T15:59:54.852Z,5.70
2022-12-26T16:02:37.711Z,5.60
2022-12-26T16:05:28.975Z,5.50
2022-12-26T16:08:05.845Z,5.40
2022-12-26T16:10:36.200Z,5.30
2022-12-26T16:13:30.371Z,5.10
2022-12-26T16:16:01.311Z,5.10
2022-12-26T16:18:54.995Z,5.10
2022-12-26T16:21:43.521Z,5.00
2022-12-26T16:24:15.445Z,4.90
2022-12-26T16:26:46.257Z,4.90
2022-12-26T16:29:19.304Z,4.80
2022-12-26T16:31:48.251Z,4.70
2022-12-26T16:34:19.330Z,4.60
2022-12-26T16:36:51.261Z,4.50
2022-12-26T16:39:24.933Z,4.50
2022-12-26T16:42:01.883Z,4.40
2022-12-26T16:44:35.651Z,4.40
2022-12-26T16:47:07.026Z,4.40
2022-12-26T16:49:36.155Z,4.40
2022-12-26T16:52:07.696Z,4.40
2022-12-26T16:54:42.527Z,4.40
2022-12-26T16:57:18.861Z,4.40
2022-12-26T16:59:53.735Z,4.40
2022-12-26T17:02:25.582Z,4.40
2022-12-26T17:05:02.264Z,4.40
2022-12-26T17:07:31.186Z,4.30
2022-12-26T17:10:02.291Z,4.30
2022-12-26T17:12:36.522Z,4.20
2022-12-26T17:15:31.920Z,4.20
2022-12-26T17:18:01.692Z,4.10
2022-12-26T17:20:40.646Z,4.10
2022-12-26T17:23:37.518Z,4.10
2022-12-26T17:26:22.938Z,4.10
2022-12-26T17:28:51.670Z,4.00
2022-12-26T17:31:25.774Z,4.00
2022-12-26T17:34:22.012Z,3.90
2022-12-26T17:37:18.547Z,3.80
2022-12-26T17:39:38.822Z,3.90
2022-12-26T17:42:08.768Z,3.80
2022-12-26T17:44:38.927Z,3.90
2022-12-26T17:47:20.507Z,3.80
2022-12-26T17:49:49.358Z,3.80
2022-12-26T17:52:21.413Z,3.80
2022-12-26T17:54:50.978Z,3.80
2022-12-26T17:57:23.236Z,3.80
2022-12-26T17:59:53.283Z,3.80
2022-12-26T18:02:22.522Z,3.70
2022-12-26T18:04:51.328Z,3.70
2022-12-26T18:07:28.737Z,3.70
2022-12-26T18:09:59.268Z,3.70
2022-12-26T18:12:29.307Z,3.70
2022-12-26T18:15:01.669Z,3.70
2022-12-26T18:17:34.184Z,3.60
2022-12-26T18:20:02.864Z,3.60
2022-12-26T18:22:31.296Z,3.60
2022-12-26T18:24:59.589Z,3.60
2022-12-26T18:27:31.696Z,3.60
2022-12-26T18:30:01.505Z,3.50
2022-12-26T18:32:55.254Z,3.50
2022-12-26T18:35:23.700Z,3.50
2022-12-26T18:37:53.802Z,3.40
2022-12-26T18:40:32.798Z,3.30
2022-12-26T18:43:03.039Z,3.30
2022-12-26T18:45:31.939Z,3.40
2022-12-26T18:48:00.494Z,3.30
2022-12-26T18:50:30.132Z,3.20
2022-12-26T18:52:58.820Z,3.30
2022-12-26T18:55:28.625Z,3.20
2022-12-26T18:57:57.518Z,3.30
2022-12-26T19:00:27.605Z,3.20
2022-12-26T19:02:56.667Z,3.20
2022-12-26T19:05:27.609Z,3.20
2022-12-26T19:07:56.344Z,3.10
2022-12-26T19:10:26.733Z,3.00
2022-12-26T19:13:02.826Z,3.00
2022-12-26T19:15:35.811Z,2.90
2022-12-26T19:18:32.414Z,3.00
2022-12-26T19:21:00.743Z,3.00
2022-12-26T19:23:29.154Z,3.00
2022-12-26T19:25:57.502Z,3.00
2022-12-26T19:28:25.835Z,3.00
2022-12-26T19:30:55.613Z,3.00
2022-12-26T19:33:54.285Z,2.90
2022-12-26T19:36:22.614Z,2.90
2022-12-26T19:39:20.137Z,2.90
2022-12-26T19:41:49.512Z,2.80
2022-12-26T19:44:18.765Z,2.80
2022-12-26T19:46:48.563Z,2.80
2022-12-26T19:49:18.013Z,2.70
2022-12-26T19:51:47.700Z,2.70
2022-12-26T19:54:16.159Z,2.70
2022-12-26T19:56:44.593Z,2.70
2022-12-26T19:59:12.980Z,2.70
2022-12-26T20:01:42.301Z,2.70
2022-12-26T20:04:12.812Z,2.70
2022-12-26T20:07:31.527Z,2.70
2022-12-26T20:09:59.876Z,2.60
2022-12-26T20:12:28.181Z,2.60
2022-12-26T20:14:56.537Z,2.60
2022-12-26T20:17:25.031Z,2.60
2022-12-26T20:19:54.768Z,2.60
2022-12-26T20:22:23.585Z,2.80
2022-12-26T20:24:51.910Z,2.70
2022-12-26T20:27:20.309Z,2.70
2022-12-26T20:29:48.668Z,2.70
2022-12-26T20:32:21.365Z,2.70
2022-12-26T20:34:49.714Z,2.70
2022-12-26T20:37:23.652Z,2.60
2022-12-26T20:39:51.991Z,2.70
2022-12-26T20:42:20.377Z,2.60
2022-12-26T20:44:48.712Z,2.60
2022-12-26T20:47:17.548Z,2.60
2022-12-26T20:49:45.879Z,2.50
2022-12-26T20:52:18.688Z,2.50
2022-12-26T20:54:48.429Z,2.40
2022-12-26T20:57:16.766Z,2.40
2022-12-26T20:59:46.147Z,2.40
2022-12-26T21:02:15.079Z,2.40
2022-12-26T21:04:43.499Z,2.40
2022-12-26T21:07:13.538Z,2.30
2022-12-26T21:09:46.232Z,2.40
2022-12-26T21:13:05.824Z,2.40
2022-12-26T21:15:35.672Z,2.30
2022-12-26T21:18:04.488Z,2.40
2022-12-26T21:20:33.208Z,2.30
2022-12-26T21:23:01.571Z,2.20
2022-12-26T21:25:30.490Z,2.40
2022-12-26T21:27:59.496Z,2.40
2022-12-26T21:30:28.040Z,2.50
2022-12-26T21:33:01.018Z,2.40
2022-12-26T21:35:29.323Z,2.40
2022-12-26T21:37:57.749Z,2.50
2022-12-26T21:40:27.698Z,2.40
2022-12-26T21:43:04.206Z,2.40
2022-12-26T21:45:32.552Z,2.40
2022-12-26T21:48:02.315Z,2.40
2022-12-26T21:50:30.604Z,2.30
2022-12-26T21:52:59.231Z,2.30
2022-12-26T21:55:27.697Z,2.20
2022-12-26T21:57:56.367Z,2.20
2022-12-26T22:00:25.230Z,2.30
2022-12-26T22:03:11.365Z,2.20
2022-12-26T22:05:42.509Z,2.20
2022-12-26T22:08:12.386Z,2.20
2022-12-26T22:11:36.704Z,2.10
2022-12-26T22:14:05.099Z,2.10
2022-12-26T22:16:34.079Z,2.10
2022-12-26T22:19:29.113Z,2.00
2022-12-26T22:21:58.914Z,2.00
2022-12-26T22:24:27.270Z,1.90
2022-12-26T22:26:55.652Z,2.00
2022-12-26T22:29:24.977Z,2.00
2022-12-26T22:31:53.349Z,2.00
2022-12-26T22:34:22.706Z,1.90
2022-12-26T22:36:51.047Z,1.80
2022-12-26T22:39:20.848Z,2.00
2022-12-26T22:41:49.337Z,1.90
2022-12-26T22:44:17.623Z,1.90
2022-12-26T22:46:45.968Z,1.90
2022-12-26T22:49:14.419Z,2.00
2022-12-26T22:51:43.423Z,1.90
2022-12-26T22:54:11.730Z,1.90
2022-12-26T22:56:41.453Z,1.80
2022-12-26T22:59:27.412Z,1.90
2022-12-26T23:02:00.891Z,2.00
2022-12-26T23:04:32.246Z,2.10
2022-12-26T23:07:01.290Z,2.10
2022-12-26T23:09:30.016Z,2.10
2022-12-26T23:12:49.035Z,2.00
2022-12-26T23:15:21.297Z,2.00
2022-12-26T23:18:13.959Z,2.00
2022-12-26T23:21:00.295Z,2.00
2022-12-26T23:23:29.102Z,1.90
2022-12-26T23:26:00.558Z,1.90
2022-12-26T23:28:46.445Z,2.00
2022-12-26T23:31:16.726Z,1.90
2022-12-26T23:33:46.184Z,1.80
2022-12-26T23:36:14.543Z,1.80
2022-12-26T23:38:43.836Z,1.70
2022-12-26T23:41:16.203Z,1.70
2022-12-26T23:43:44.528Z,1.60
2022-12-26T23:46:13.302Z,1.60
2022-12-26T23:48:43.037Z,1.60
2022-12-26T23:51:11.408Z,1.60
2022-12-26T23:53:39.978Z,1.60
2022-12-26T23:56:10.497Z,1.50
2022-12-26T23:58:40.009Z,1.50
